createdAt,value
2018-09-22T00:01:16.822Z,10.50
2018-09-22T00:03:45.461Z,10.50
2018-09-22T00:06:14.063Z,10.50
2018-09-22T00:08:42.683Z,10.50
2018-09-22T00:11:11.258Z,10.50
2018-09-22T00:13:39.836Z,10.50
2018-09-22T00:16:08.575Z,10.50
2018-09-22T00:18:37.194Z,10.50
2018-09-22T00:21:06.091Z,10.40
2018-09-22T00:23:34.757Z,10.50
2018-09-22T00:26:03.379Z,10.50
2018-09-22T00:28:31.922Z,10.50
2018-09-22T00:31:00.582Z,10.50
2018-09-22T00:33:29.163Z,10.40
2018-09-22T00:35:57.787Z,10.40
2018-09-22T00:38:26.381Z,10.40
2018-09-22T00:40:54.985Z,10.40
2018-09-22T00:43:23.542Z,10.40
2018-09-22T00:45:52.178Z,10.40
2018-09-22T00:48:20.773Z,10.40
2018-09-22T00:50:49.396Z,10.30
2018-09-22T00:53:18.061Z,10.30
2018-09-22T00:55:46.684Z,10.20
2018-09-22T00:58:15.298Z,10.20
2018-09-22T01:00:43.915Z,10.20
2018-09-22T01:03:12.496Z,10.10
2018-09-22T01:05:41.120Z,10.10
2018-09-22T01:08:09.726Z,10.10
2018-09-22T01:10:38.292Z,10.10
2018-09-22T01:13:06.965Z,10.10
2018-09-22T01:15:35.633Z,10.10
2018-09-22T01:18:04.164Z,10.10
2018-09-22T01:20:32.788Z,10.10
2018-09-22T01:23:01.386Z,10.10
2018-09-22T01:25:29.977Z,10.10
2018-09-22T01:27:58.524Z,10.10
2018-09-22T01:30:27.128Z,10.10
2018-09-22T01:32:55.694Z,10.10
2018-09-22T01:35:24.328Z,10.10
2018-09-22T01:37:53.018Z,10.00
2018-09-22T01:40:21.625Z,10.10
2018-09-22T01:42:50.273Z,10.10
2018-09-22T01:45:18.983Z,10.00
2018-09-22T01:47:47.636Z,10.00
2018-09-22T01:50:16.211Z,10.00
2018-09-22T01:52:44.790Z,10.00
2018-09-22T01:55:13.384Z,10.00
2018-09-22T01:57:42.033Z,10.00
2018-09-22T02:00:10.689Z,10.00
2018-09-22T02:02:39.227Z,10.00
2018-09-22T02:05:07.835Z,10.00
2018-09-22T02:07:36.434Z,10.00
2018-09-22T02:10:05.090Z,10.10
2018-09-22T02:12:33.698Z,10.10
2018-09-22T02:15:03.310Z,10.20
2018-09-22T02:17:31.869Z,10.20
2018-09-22T02:20:00.486Z,10.30
2018-09-22T02:22:29.124Z,10.30
2018-09-22T02:24:57.672Z,10.30
2018-09-22T02:27:26.436Z,10.40
2018-09-22T02:29:55.146Z,10.40
2018-09-22T02:32:23.799Z,10.40
2018-09-22T02:34:52.389Z,10.50
2018-09-22T02:37:21.339Z,10.50
2018-09-22T02:39:49.941Z,10.50
2018-09-22T02:42:18.509Z,10.50
2018-09-22T02:44:47.130Z,10.50
2018-09-22T02:47:15.702Z,10.50
2018-09-22T02:49:44.273Z,10.50
2018-09-22T02:52:12.938Z,10.50
2018-09-22T02:54:41.505Z,10.50
2018-09-22T02:57:10.058Z,10.40
2018-09-22T02:59:38.650Z,10.40
2018-09-22T03:02:07.356Z,10.30
2018-09-22T03:04:35.948Z,10.30
2018-09-22T03:07:04.606Z,10.40
2018-09-22T03:09:33.159Z,10.40
2018-09-22T03:12:01.811Z,10.50
2018-09-22T03:14:30.385Z,10.50
2018-09-22T03:16:58.972Z,10.40
2018-09-22T03:19:27.585Z,10.40
2018-09-22T03:21:56.181Z,10.50
2018-09-22T03:24:24.740Z,10.50
2018-09-22T03:26:53.316Z,10.40
2018-09-22T03:29:21.936Z,10.40
2018-09-22T03:31:50.524Z,10.40
2018-09-22T03:34:19.086Z,10.40
2018-09-22T03:36:47.713Z,10.40
2018-09-22T03:39:16.308Z,10.50
2018-09-22T03:41:44.880Z,10.60
2018-09-22T03:44:13.498Z,10.50
2018-09-22T03:46:42.060Z,10.60
2018-09-22T03:49:10.639Z,10.60
2018-09-22T03:51:39.268Z,10.70
2018-09-22T03:54:07.843Z,10.60
2018-09-22T03:56:36.435Z,10.60
2018-09-22T03:59:05.056Z,10.60
2018-09-22T04:01:33.610Z,10.50
2018-09-22T04:04:02.190Z,10.50
2018-09-22T04:06:30.813Z,10.40
2018-09-22T04:08:59.388Z,10.40
2018-09-22T04:11:28.004Z,10.40
2018-09-22T04:13:56.601Z,10.40
2018-09-22T04:16:25.221Z,10.40
2018-09-22T04:18:53.822Z,10.40
2018-09-22T04:21:22.442Z,10.40
2018-09-22T04:23:51.030Z,10.40
2018-09-22T04:26:19.746Z,10.40
2018-09-22T04:28:48.820Z,10.40
2018-09-22T04:31:17.416Z,10.40
2018-09-22T04:33:45.973Z,10.40
2018-09-22T04:36:14.583Z,10.40
2018-09-22T04:38:43.208Z,10.30
2018-09-22T04:41:11.974Z,10.30
2018-09-22T04:43:40.578Z,10.30
2018-09-22T04:46:10.337Z,10.30
2018-09-22T04:48:38.970Z,10.30
2018-09-22T04:51:07.655Z,10.40
2018-09-22T04:53:36.291Z,10.40
2018-09-22T04:56:04.915Z,10.30
2018-09-22T04:58:33.537Z,10.30
2018-09-22T05:01:02.305Z,10.30
2018-09-22T05:03:30.907Z,10.30
2018-09-22T05:06:00.855Z,10.30
2018-09-22T05:08:29.417Z,10.40
2018-09-22T05:10:58.095Z,10.40
2018-09-22T05:13:27.632Z,10.40
2018-09-22T05:15:56.218Z,10.40
2018-09-22T05:18:24.813Z,10.50
2018-09-22T05:20:53.497Z,10.50
2018-09-22T05:23:22.066Z,10.60
2018-09-22T05:25:50.767Z,10.70
2018-09-22T05:28:19.592Z,10.70
2018-09-22T05:30:48.282Z,10.80
2018-09-22T05:33:16.855Z,10.80
2018-09-22T05:35:45.748Z,10.80
2018-09-22T05:38:14.822Z,10.80
2018-09-22T05:40:44.299Z,10.70
2018-09-22T05:43:12.912Z,10.70
2018-09-22T05:45:41.499Z,10.80
2018-09-22T05:48:10.147Z,10.90
2018-09-22T05:50:38.761Z,10.90
2018-09-22T05:53:07.368Z,10.80
2018-09-22T05:55:36.008Z,10.80
2018-09-22T05:58:04.670Z,10.80
2018-09-22T06:00:36.681Z,10.80
2018-09-22T06:03:05.990Z,10.80
2018-09-22T06:05:34.604Z,10.90
2018-09-22T06:08:03.560Z,11.00
2018-09-22T06:10:38.676Z,10.90
2018-09-22T06:13:07.473Z,11.00
2018-09-22T06:15:36.088Z,10.90
2018-09-22T06:18:04.742Z,11.00
2018-09-22T06:20:33.340Z,11.00
2018-09-22T06:23:01.955Z,11.10
2018-09-22T06:25:30.705Z,11.10
2018-09-22T06:27:59.349Z,11.10
2018-09-22T06:30:27.959Z,11.10
2018-09-22T06:32:56.591Z,11.20
2018-09-22T06:35:25.167Z,11.20
2018-09-22T06:37:54.310Z,11.20
2018-09-22T06:40:22.958Z,11.30
2018-09-22T06:42:51.559Z,11.40
2018-09-22T06:45:20.202Z,11.40
2018-09-22T06:47:48.831Z,11.50
2018-09-22T06:50:17.552Z,11.50
2018-09-22T06:52:46.166Z,11.50
2018-09-22T06:55:14.840Z,11.50
2018-09-22T06:57:43.449Z,11.60
2018-09-22T07:00:12.090Z,11.80
2018-09-22T07:02:40.723Z,11.90
2018-09-22T07:05:09.356Z,11.90
2018-09-22T07:07:38.067Z,12.00
2018-09-22T07:10:06.753Z,12.00
2018-09-22T07:12:35.386Z,12.10
2018-09-22T07:15:04.112Z,12.20
2018-09-22T07:17:32.755Z,12.30
2018-09-22T07:20:01.359Z,12.30
2018-09-22T07:22:35.182Z,12.30
2018-09-22T07:25:03.873Z,12.30
2018-09-22T07:27:32.509Z,12.40
2018-09-22T07:30:01.184Z,12.40
2018-09-22T07:32:29.789Z,12.40
2018-09-22T07:34:58.392Z,12.50
2018-09-22T07:37:27.240Z,12.50
2018-09-22T07:39:55.844Z,12.60
2018-09-22T07:42:24.554Z,12.70
2018-09-22T07:44:53.238Z,12.80
2018-09-22T07:47:21.877Z,12.90
2018-09-22T07:49:50.527Z,13.00
2018-09-22T07:52:19.228Z,13.00
2018-09-22T07:54:47.886Z,12.90
2018-09-22T07:57:16.537Z,13.00
2018-09-22T07:59:45.181Z,13.00
2018-09-22T08:02:13.753Z,13.00
2018-09-22T08:04:43.129Z,13.00
2018-09-22T08:07:11.746Z,13.00
2018-09-22T08:09:40.372Z,13.20
2018-09-22T08:12:13.287Z,13.40
2018-09-22T08:14:41.904Z,13.60
2018-09-22T08:17:10.534Z,13.70
2018-09-22T08:19:39.170Z,13.60
2018-09-22T08:22:07.822Z,13.50
2018-09-22T08:24:36.423Z,13.40
2018-09-22T08:27:05.143Z,13.40
2018-09-22T08:29:33.773Z,13.50
2018-09-22T08:32:02.432Z,13.60
2018-09-22T08:34:31.093Z,13.60
2018-09-22T08:36:59.880Z,13.70
2018-09-22T08:39:28.366Z,13.80
2018-09-22T08:41:56.989Z,13.90
2018-09-22T08:44:25.577Z,14.00
2018-09-22T08:46:54.201Z,14.00
2018-09-22T08:49:22.868Z,14.00
2018-09-22T08:51:52.114Z,14.10
2018-09-22T08:54:20.778Z,14.20
2018-09-22T08:56:49.427Z,14.10
2018-09-22T08:59:18.024Z,14.10
2018-09-22T09:01:46.680Z,14.00
2018-09-22T09:04:15.381Z,14.00
2018-09-22T09:06:44.014Z,14.00
2018-09-22T09:09:12.644Z,13.90
2018-09-22T09:11:41.306Z,14.00
2018-09-22T09:14:10.015Z,14.30
2018-09-22T09:16:38.570Z,14.60
2018-09-22T09:19:07.925Z,14.80
2018-09-22T09:21:36.547Z,14.90
2018-09-22T09:24:06.148Z,15.00
2018-09-22T09:26:34.796Z,14.90
2018-09-22T09:29:03.493Z,14.80
2018-09-22T09:31:32.393Z,14.80
2018-09-22T09:34:01.041Z,14.90
2018-09-22T09:36:29.681Z,15.00
2018-09-22T09:39:00.846Z,15.10
2018-09-22T09:41:29.580Z,15.20
2018-09-22T09:43:58.198Z,15.10
2018-09-22T09:46:26.820Z,15.00
2018-09-22T09:48:56.188Z,15.00
2018-09-22T09:51:24.800Z,14.90
2018-09-22T09:53:53.409Z,15.00
2018-09-22T09:56:22.067Z,15.00
2018-09-22T09:58:50.690Z,15.00
2018-09-22T10:01:19.310Z,15.10
2018-09-22T10:03:47.962Z,15.20
2018-09-22T10:06:16.628Z,15.40
2018-09-22T10:08:45.215Z,15.50
2018-09-22T10:11:13.823Z,15.40
2018-09-22T10:13:42.446Z,15.60
2018-09-22T10:16:11.063Z,15.70
2018-09-22T10:18:39.709Z,15.90
2018-09-22T10:21:08.355Z,15.90
2018-09-22T10:23:36.962Z,16.00
2018-09-22T10:26:05.601Z,16.20
2018-09-22T10:28:34.305Z,16.30
2018-09-22T10:31:02.865Z,16.50
2018-09-22T10:33:31.565Z,16.40
2018-09-22T10:36:00.198Z,16.40
2018-09-22T10:38:28.866Z,16.40
2018-09-22T10:40:57.486Z,16.30
2018-09-22T10:43:26.129Z,16.30
2018-09-22T10:45:54.736Z,16.30
2018-09-22T10:48:23.599Z,16.30
2018-09-22T10:50:52.195Z,16.40
2018-09-22T10:53:20.901Z,16.70
2018-09-22T10:55:49.554Z,16.90
2018-09-22T10:58:18.251Z,16.90
2018-09-22T11:00:46.920Z,16.90
2018-09-22T11:03:15.646Z,17.00
2018-09-22T11:05:44.224Z,17.20
2018-09-22T11:08:12.879Z,17.30
2018-09-22T11:10:41.752Z,17.30
2018-09-22T11:13:10.382Z,17.30
2018-09-22T11:15:39.025Z,17.30
2018-09-22T11:18:07.904Z,17.20
2018-09-22T11:20:36.569Z,17.20
2018-09-22T11:23:05.398Z,17.40
2018-09-22T11:25:34.054Z,17.50
2018-09-22T11:28:02.672Z,17.60
2018-09-22T11:30:31.319Z,17.50
2018-09-22T11:32:59.984Z,17.50
2018-09-22T11:35:28.604Z,17.50
2018-09-22T11:37:57.218Z,17.30
2018-09-22T11:40:25.838Z,17.20
2018-09-22T11:42:54.480Z,17.10
2018-09-22T11:45:23.229Z,17.10
2018-09-22T11:47:51.888Z,17.00
2018-09-22T11:50:20.488Z,16.80
2018-09-22T11:52:49.125Z,16.80
2018-09-22T11:55:17.785Z,16.60
2018-09-22T11:57:46.417Z,16.60
2018-09-22T12:00:15.210Z,16.50
2018-09-22T12:02:43.840Z,16.50
2018-09-22T12:05:12.511Z,16.60
2018-09-22T12:07:41.081Z,16.80
2018-09-22T12:10:09.767Z,16.90
2018-09-22T12:12:38.375Z,16.90
2018-09-22T12:15:07.159Z,16.80
2018-09-22T12:17:35.797Z,16.80
2018-09-22T12:20:04.559Z,16.80
2018-09-22T12:22:33.263Z,16.70
2018-09-22T12:25:02.799Z,16.70
2018-09-22T12:27:31.553Z,16.60
2018-09-22T12:30:00.208Z,16.50
2018-09-22T12:32:28.962Z,16.30
2018-09-22T12:35:04.216Z,16.20
2018-09-22T12:37:32.930Z,16.20
2018-09-22T12:40:01.672Z,16.20
2018-09-22T12:42:30.337Z,16.20
2018-09-22T12:44:59.072Z,16.20
2018-09-22T12:47:27.666Z,16.20
2018-09-22T12:49:56.297Z,16.10
2018-09-22T12:52:25.288Z,16.00
2018-09-22T12:54:53.866Z,16.00
2018-09-22T12:57:22.493Z,16.00
2018-09-22T12:59:51.203Z,16.00
2018-09-22T13:02:19.839Z,16.00
2018-09-22T13:04:48.456Z,16.00
2018-09-22T13:07:17.115Z,16.10
2018-09-22T13:09:45.735Z,16.10
2018-09-22T13:12:14.433Z,16.10
2018-09-22T13:14:43.076Z,16.10
2018-09-22T13:17:11.679Z,16.10
2018-09-22T13:19:40.709Z,16.10
2018-09-22T13:22:09.358Z,16.10
2018-09-22T13:24:39.234Z,16.20
2018-09-22T13:27:07.836Z,16.30
2018-09-22T13:29:36.473Z,16.30
2018-09-22T13:32:05.088Z,16.30
2018-09-22T13:34:33.730Z,16.40
2018-09-22T13:37:02.396Z,16.50
2018-09-22T13:39:31.060Z,16.60
2018-09-22T13:41:59.703Z,16.80
2018-09-22T13:44:28.431Z,17.00
2018-09-22T13:46:57.036Z,17.20
2018-09-22T13:49:25.662Z,17.30
2018-09-22T13:51:54.311Z,17.50
2018-09-22T13:54:22.957Z,17.70
2018-09-22T13:56:52.006Z,17.80
2018-09-22T13:59:21.388Z,17.70
2018-09-22T14:01:50.048Z,17.50
2018-09-22T14:04:19.564Z,17.30
2018-09-22T14:06:48.250Z,17.10
2018-09-22T14:09:18.022Z,17.00
2018-09-22T14:11:46.642Z,16.80
2018-09-22T14:14:15.310Z,16.70
2018-09-22T14:16:43.977Z,16.60
2018-09-22T14:19:12.661Z,16.50
2018-09-22T14:21:41.315Z,16.50
2018-09-22T14:24:09.991Z,16.60
2018-09-22T14:26:38.603Z,16.70
2018-09-22T14:29:07.297Z,16.70
2018-09-22T14:31:35.928Z,16.80
2018-09-22T14:34:04.622Z,16.70
2018-09-22T14:36:33.290Z,16.70
2018-09-22T14:39:01.955Z,16.60
2018-09-22T14:41:30.633Z,16.40
2018-09-22T14:43:59.320Z,16.30
2018-09-22T14:46:27.963Z,16.20
2018-09-22T14:48:56.583Z,16.10
2018-09-22T14:51:25.254Z,16.10
2018-09-22T14:53:53.881Z,16.10
2018-09-22T14:56:22.514Z,16.10
2018-09-22T14:58:51.218Z,16.10
2018-09-22T15:01:19.873Z,16.10
2018-09-22T15:03:49.231Z,16.10
2018-09-22T15:06:17.856Z,16.00
2018-09-22T15:08:46.473Z,15.90
2018-09-22T15:11:15.174Z,15.90
2018-09-22T15:13:43.867Z,15.80
2018-09-22T15:16:13.380Z,15.80
2018-09-22T15:18:42.025Z,15.80
2018-09-22T15:21:10.666Z,15.70
2018-09-22T15:23:39.329Z,15.60
2018-09-22T15:26:07.952Z,15.60
2018-09-22T15:28:36.684Z,15.50
2018-09-22T15:31:05.329Z,15.50
2018-09-22T15:33:33.966Z,15.50
2018-09-22T15:36:02.700Z,15.50
2018-09-22T15:38:31.385Z,15.40
2018-09-22T15:41:00.066Z,15.40
2018-09-22T15:43:28.747Z,15.30
2018-09-22T15:45:57.387Z,15.30
2018-09-22T15:48:26.117Z,15.30
2018-09-22T15:50:54.771Z,15.40
2018-09-22T15:53:23.436Z,15.40
2018-09-22T15:55:52.037Z,15.30
2018-09-22T15:58:20.689Z,15.30
2018-09-22T16:00:49.441Z,15.30
2018-09-22T16:03:18.064Z,15.20
2018-09-22T16:05:46.700Z,15.20
2018-09-22T16:08:15.339Z,15.20
2018-09-22T16:10:43.884Z,15.20
2018-09-22T16:13:12.597Z,15.10
2018-09-22T16:15:41.238Z,15.10
2018-09-22T16:18:10.334Z,15.10
2018-09-22T16:20:39.011Z,15.00
2018-09-22T16:23:08.028Z,15.10
2018-09-22T16:25:36.815Z,15.00
2018-09-22T16:28:05.487Z,15.00
2018-09-22T16:30:35.073Z,15.00
2018-09-22T16:33:03.853Z,15.00
2018-09-22T16:35:32.502Z,14.90
2018-09-22T16:38:01.138Z,14.90
2018-09-22T16:40:29.851Z,14.90
2018-09-22T16:42:58.519Z,14.80
2018-09-22T16:45:27.198Z,14.80
2018-09-22T16:47:55.892Z,14.80
2018-09-22T16:50:24.579Z,14.80
2018-09-22T16:52:53.269Z,14.70
2018-09-22T16:55:21.901Z,14.70
2018-09-22T16:57:50.614Z,14.70
2018-09-22T17:00:19.283Z,14.60
2018-09-22T17:02:47.917Z,14.60
2018-09-22T17:05:16.642Z,14.60
2018-09-22T17:07:45.255Z,14.50
2018-09-22T17:10:13.898Z,14.40
2018-09-22T17:12:42.596Z,14.40
2018-09-22T17:15:11.295Z,14.30
2018-09-22T17:17:39.916Z,14.20
2018-09-22T17:20:08.609Z,14.10
2018-09-22T17:22:37.698Z,14.10
2018-09-22T17:25:06.600Z,14.00
2018-09-22T17:27:35.348Z,14.00
2018-09-22T17:30:04.022Z,13.90
2018-09-22T17:32:32.665Z,13.90
2018-09-22T17:35:01.370Z,13.90
2018-09-22T17:37:29.989Z,13.80
2018-09-22T17:39:58.650Z,13.80
2018-09-22T17:42:27.332Z,13.70
2018-09-22T17:44:55.962Z,13.70
2018-09-22T17:47:24.579Z,13.70
2018-09-22T17:49:53.224Z,13.70
2018-09-22T17:52:21.883Z,13.60
2018-09-22T17:54:50.490Z,13.60
2018-09-22T17:57:19.216Z,13.50
2018-09-22T17:59:48.879Z,13.50
2018-09-22T18:02:17.552Z,13.40
2018-09-22T18:04:46.245Z,13.40
2018-09-22T18:07:16.117Z,13.40
2018-09-22T18:09:44.829Z,13.40
2018-09-22T18:12:13.540Z,13.40
2018-09-22T18:14:42.163Z,13.40
2018-09-22T18:17:10.838Z,13.40
2018-09-22T18:19:39.516Z,13.40
2018-09-22T18:22:08.200Z,13.40
2018-09-22T18:24:36.804Z,13.40
2018-09-22T18:27:05.526Z,13.40
2018-09-22T18:29:34.157Z,13.30
2018-09-22T18:32:02.908Z,13.30
2018-09-22T18:34:31.576Z,13.30
2018-09-22T18:37:00.257Z,13.30
2018-09-22T18:39:28.945Z,13.30
2018-09-22T18:41:57.607Z,13.20
2018-09-22T18:44:26.486Z,13.20
2018-09-22T18:46:55.448Z,13.20
2018-09-22T18:49:24.139Z,13.20
2018-09-22T18:51:52.753Z,13.20
2018-09-22T18:54:21.389Z,13.10
2018-09-22T18:56:53.004Z,13.20
2018-09-22T18:59:21.596Z,13.20
2018-09-22T19:01:50.238Z,13.10
2018-09-22T19:04:18.839Z,13.10
2018-09-22T19:06:47.479Z,13.10
2018-09-22T19:09:16.115Z,13.10
2018-09-22T19:11:44.796Z,13.10
2018-09-22T19:16:23.124Z,13.10
2018-09-22T19:18:57.159Z,13.10
2018-09-22T19:21:34.701Z,13.00
2018-09-22T19:24:06.931Z,13.00
2018-09-22T19:26:39.804Z,13.00
2018-09-22T19:29:17.052Z,13.00
2018-09-22T19:31:51.365Z,13.00
2018-09-22T19:34:24.193Z,13.00
2018-09-22T19:36:59.210Z,13.00
2018-09-22T19:39:33.216Z,12.90
2018-09-22T19:42:10.242Z,12.90
2018-09-22T19:44:44.073Z,12.90
2018-09-22T19:47:19.170Z,12.90
2018-09-22T19:49:54.287Z,12.90
2018-09-22T19:52:27.519Z,12.90
2018-09-22T19:54:56.253Z,12.80
2018-09-22T19:57:24.881Z,12.80
2018-09-22T19:59:53.549Z,12.70
2018-09-22T20:02:22.198Z,12.70
2018-09-22T20:04:50.875Z,12.60
2018-09-22T20:07:19.912Z,12.60
2018-09-22T20:09:48.552Z,12.60
2018-09-22T20:12:17.236Z,12.50
2018-09-22T20:14:45.959Z,12.50
2018-09-22T20:17:14.673Z,12.50
2018-09-22T20:19:43.221Z,12.50
2018-09-22T20:22:11.885Z,12.50
2018-09-22T20:24:40.567Z,12.40
2018-09-22T20:27:09.210Z,12.40
2018-09-22T20:29:37.925Z,12.40
2018-09-22T20:32:06.571Z,12.40
2018-09-22T20:34:36.426Z,12.40
2018-09-22T20:37:05.121Z,12.40
2018-09-22T20:39:33.863Z,12.40
2018-09-22T20:42:02.857Z,12.30
2018-09-22T20:44:31.605Z,12.20
2018-09-22T20:47:00.191Z,12.20
2018-09-22T20:49:28.858Z,12.20
2018-09-22T20:51:57.677Z,12.20
2018-09-22T20:54:26.388Z,12.10
2018-09-22T20:56:55.017Z,12.00
2018-09-22T20:59:23.705Z,12.00
2018-09-22T21:01:52.363Z,12.00
2018-09-22T21:04:31.899Z,12.00
2018-09-22T21:07:00.555Z,12.00
2018-09-22T21:09:29.274Z,11.90
2018-09-22T21:11:57.929Z,11.90
2018-09-22T21:14:26.886Z,11.90
2018-09-22T21:16:56.786Z,11.90
2018-09-22T21:19:25.495Z,11.80
2018-09-22T21:21:54.190Z,11.80
2018-09-22T21:24:23.393Z,11.80
2018-09-22T21:26:52.019Z,11.90
2018-09-22T21:29:20.645Z,11.90
2018-09-22T21:31:49.378Z,11.90
2018-09-22T21:34:18.126Z,11.90
2018-09-22T21:36:46.778Z,11.90
2018-09-22T21:39:15.395Z,12.00
2018-09-22T21:41:44.100Z,11.90
2018-09-22T21:44:12.755Z,12.00
2018-09-22T21:46:41.726Z,12.00
2018-09-22T21:49:10.457Z,12.00
2018-09-22T21:51:39.127Z,12.00
2018-09-22T21:54:07.862Z,12.00
2018-09-22T21:56:36.479Z,12.00
2018-09-22T21:59:05.080Z,12.00
2018-09-22T22:01:39.706Z,12.00
2018-09-22T22:04:09.089Z,12.00
2018-09-22T22:06:44.518Z,12.00
2018-09-22T22:09:14.835Z,12.00
2018-09-22T22:11:43.518Z,12.00
2018-09-22T22:14:12.123Z,12.00
2018-09-22T22:16:41.037Z,12.00
2018-09-22T22:19:09.807Z,12.00
2018-09-22T22:21:38.676Z,12.10
2018-09-22T22:24:08.037Z,12.10
2018-09-22T22:26:36.696Z,12.10
2018-09-22T22:29:05.385Z,12.10
2018-09-22T22:31:33.998Z,12.10
2018-09-22T22:34:02.663Z,12.10
2018-09-22T22:36:31.337Z,12.10
2018-09-22T22:39:00.181Z,12.10
2018-09-22T22:41:28.855Z,12.10
2018-09-22T22:43:57.472Z,12.10
2018-09-22T22:46:26.139Z,12.10
2018-09-22T22:48:54.747Z,12.10
2018-09-22T22:51:23.396Z,12.10
2018-09-22T22:53:52.102Z,12.10
2018-09-22T22:56:20.719Z,12.10
2018-09-22T22:58:49.360Z,12.10
2018-09-22T23:01:18.397Z,12.10
2018-09-22T23:03:47.021Z,12.00
2018-09-22T23:06:15.692Z,12.10
2018-09-22T23:08:44.290Z,12.10
2018-09-22T23:11:12.940Z,12.10
2018-09-22T23:13:41.709Z,12.00
2018-09-22T23:16:10.304Z,12.10
2018-09-22T23:18:38.905Z,12.10
2018-09-22T23:21:07.659Z,12.10
2018-09-22T23:23:36.201Z,12.00
2018-09-22T23:26:04.831Z,12.10
2018-09-22T23:28:34.984Z,12.10
2018-09-22T23:31:03.607Z,12.10
2018-09-22T23:33:32.269Z,12.10
2018-09-22T23:36:00.905Z,12.10
2018-09-22T23:38:29.478Z,12.10
2018-09-22T23:40:58.139Z,12.00
2018-09-22T23:43:26.756Z,12.00
2018-09-22T23:45:58.318Z,12.00
2018-09-22T23:48:26.957Z,12.10
2018-09-22T23:50:55.555Z,12.00
2018-09-22T23:53:24.146Z,12.00
2018-09-22T23:55:53.291Z,12.00
2018-09-22T23:58:22.225Z,12.10
